Time;durP1;ratioP1;P1;durP2;ratioP2;P2;SDS_P1;SDS_P2;PMS_P1;PMS_P2;Temp;Humidity;BMP_temperature;BMP_pressure;BME280_temperature;BME280_humidity;BME280_pressure;Samples;Min_cycle;Max_cycle;Signal;HPM_P1;HPM_P2
2022/10/08 00:02:12;;;;;;;2.80;0.90;;;;;;;;;;5029341;28;20193;-73
2022/10/08 00:04:37;;;;;;;3.35;1.05;;;;;;;;;;4997864;28;20182;-73
2022/10/08 00:07:02;;;;;;;3.75;0.70;;;;;;;;;;5032159;28;20264;-73
2022/10/08 00:09:27;;;;;;;7.78;1.00;;;;;;;;;;5032575;28;20194;-73
2022/10/08 00:11:53;;;;;;;3.10;1.10;;;;;;;;;;5031712;28;20181;-73
2022/10/08 00:14:18;;;;;;;2.97;1.00;;;;;;;;;;5027735;28;20277;-73
2022/10/08 00:16:43;;;;;;;3.08;0.90;;;;;;;;;;5023673;28;20530;-72
2022/10/08 00:19:12;;;;;;;3.75;1.00;;;;;;;;;;5028088;28;20189;-73
2022/10/08 00:21:38;;;;;;;7.47;1.15;;;;;;;;;;5028694;28;20190;-72
2022/10/08 00:24:04;;;;;;;5.95;1.98;;;;;;;;;;5023094;28;20214;-74
2022/10/08 00:26:31;;;;;;;2.72;1.30;;;;;;;;;;5030003;28;20651;-74
2022/10/08 00:28:58;;;;;;;4.20;1.05;;;;;;;;;;5031365;28;20245;-72
2022/10/08 00:31:24;;;;;;;2.70;0.82;;;;;;;;;;5013369;28;20219;-73
2022/10/08 00:33:50;;;;;;;3.45;0.82;;;;;;;;;;5031397;28;20208;-73
2022/10/08 00:36:15;;;;;;;2.45;0.77;;;;;;;;;;5033500;28;20171;-73
2022/10/08 00:38:40;;;;;;;3.72;0.90;;;;;;;;;;5046865;28;20320;-73
2022/10/08 00:41:07;;;;;;;5.20;1.90;;;;;;;;;;5031040;28;20216;-73
2022/10/08 00:43:41;;;;;;;2.30;0.90;;;;;;;;;;5031008;28;20214;-73
2022/10/08 00:46:11;;;;;;;3.35;1.10;;;;;;;;;;5031274;28;20157;-73
2022/10/08 00:48:36;;;;;;;6.03;1.30;;;;;;;;;;5031313;28;20174;-73
2022/10/08 00:51:02;;;;;;;4.30;1.45;;;;;;;;;;5029010;28;20182;-72
2022/10/08 00:53:27;;;;;;;3.13;1.33;;;;;;;;;;5024697;28;20202;-73
2022/10/08 00:55:52;;;;;;;1.67;0.90;;;;;;;;;;5027182;28;20241;-73
2022/10/08 00:58:21;;;;;;;1.60;0.90;;;;;;;;;;5002891;28;20174;-73
2022/10/08 01:00:47;;;;;;;8.52;2.35;;;;;;;;;;5029852;28;20203;-72
2022/10/08 01:03:12;;;;;;;2.72;1.73;;;;;;;;;;5027757;28;20198;-73
2022/10/08 01:05:43;;;;;;;4.28;2.60;;;;;;;;;;5027909;28;20178;-73
2022/10/08 01:08:26;;;;;;;4.22;2.63;;;;;;;;;;5034490;28;20244;-73
2022/10/08 01:11:10;;;;;;;3.95;2.50;;;;;;;;;;5009038;28;20601;-74
2022/10/08 01:13:47;;;;;;;6.88;4.22;;;;;;;;;;5018525;28;20668;-73
2022/10/08 01:16:12;;;;;;;6.82;3.15;;;;;;;;;;5029974;28;20647;-73
2022/10/08 01:18:42;;;;;;;4.30;3.55;;;;;;;;;;5028843;28;20270;-73
2022/10/08 01:21:12;;;;;;;3.90;3.38;;;;;;;;;;5025447;28;20187;-73
2022/10/08 01:23:37;;;;;;;5.20;3.67;;;;;;;;;;5012081;28;20241;-73
2022/10/08 01:26:03;;;;;;;7.00;3.95;;;;;;;;;;5030181;28;20694;-73
2022/10/08 01:28:28;;;;;;;7.00;3.63;;;;;;;;;;5028975;28;20185;-73
2022/10/08 01:30:57;;;;;;;5.18;3.40;;;;;;;;;;5028484;28;20530;-73
2022/10/08 01:33:35;;;;;;;5.88;3.60;;;;;;;;;;5033084;28;20198;-74
2022/10/08 01:36:00;;;;;;;6.72;2.72;;;;;;;;;;5033255;28;20196;-74
2022/10/08 01:38:28;;;;;;;6.53;3.13;;;;;;;;;;5026785;28;20182;-73
2022/10/08 01:40:57;;;;;;;7.63;3.38;;;;;;;;;;5032574;28;20202;-73
2022/10/08 01:43:25;;;;;;;5.63;2.75;;;;;;;;;;5029702;28;20237;-74
2022/10/08 01:45:55;;;;;;;8.98;3.90;;;;;;;;;;5030058;28;20231;-73
2022/10/08 01:48:23;;;;;;;6.05;2.75;;;;;;;;;;5030022;28;20182;-73
2022/10/08 01:50:57;;;;;;;7.18;3.42;;;;;;;;;;5033995;28;20264;-73
2022/10/08 01:53:25;;;;;;;7.10;2.88;;;;;;;;;;5045135;28;20705;-74
2022/10/08 01:55:52;;;;;;;9.85;3.92;;;;;;;;;;5023540;28;20213;-73
2022/10/08 01:58:21;;;;;;;5.80;2.83;;;;;;;;;;5029187;28;20265;-73
2022/10/08 02:00:49;;;;;;;6.97;2.97;;;;;;;;;;5025584;28;20178;-73
2022/10/08 02:03:14;;;;;;;4.22;2.22;;;;;;;;;;5030509;28;20206;-73
2022/10/08 02:05:43;;;;;;;5.38;2.90;;;;;;;;;;5032791;28;20178;-73
2022/10/08 02:08:09;;;;;;;6.88;2.72;;;;;;;;;;5032858;28;20182;-73
2022/10/08 02:10:34;;;;;;;4.07;2.40;;;;;;;;;;5030075;28;20171;-73
2022/10/08 02:13:00;;;;;;;4.75;2.45;;;;;;;;;;5032520;28;20205;-73
2022/10/08 02:15:31;;;;;;;5.90;1.88;;;;;;;;;;5014913;28;20182;-73
2022/10/08 02:17:56;;;;;;;5.80;2.70;;;;;;;;;;5026653;28;20189;-73
2022/10/08 02:20:32;;;;;;;6.05;2.13;;;;;;;;;;5031266;28;20179;-73
2022/10/08 02:22:59;;;;;;;7.47;2.70;;;;;;;;;;5031520;28;20222;-74
2022/10/08 02:25:48;;;;;;;5.00;2.35;;;;;;;;;;5032533;28;20470;-73
2022/10/08 02:28:13;;;;;;;6.70;1.85;;;;;;;;;;5030769;28;20257;-73
2022/10/08 02:30:49;;;;;;;5.25;1.92;;;;;;;;;;5032425;28;20774;-73
2022/10/08 02:33:18;;;;;;;5.82;2.63;;;;;;;;;;5031407;28;20219;-73
2022/10/08 02:35:48;;;;;;;7.68;2.78;;;;;;;;;;5024063;28;20652;-73
2022/10/08 02:38:18;;;;;;;5.72;2.22;;;;;;;;;;5031443;28;20183;-73
2022/10/08 02:40:46;;;;;;;4.53;2.30;;;;;;;;;;5022322;28;20189;-73
2022/10/08 02:43:15;;;;;;;5.03;2.10;;;;;;;;;;5032629;28;20194;-73
2022/10/08 02:45:42;;;;;;;5.60;1.80;;;;;;;;;;5027615;28;20182;-73
2022/10/08 02:48:12;;;;;;;5.97;2.58;;;;;;;;;;5015425;28;20224;-73
2022/10/08 02:50:40;;;;;;;5.15;2.20;;;;;;;;;;5031525;28;20187;-73
2022/10/08 02:53:05;;;;;;;5.17;2.00;;;;;;;;;;5028821;28;20221;-73
2022/10/08 02:55:43;;;;;;;9.63;2.28;;;;;;;;;;5028753;28;20613;-73
2022/10/08 02:58:10;;;;;;;9.73;2.20;;;;;;;;;;5027492;28;20193;-73
2022/10/08 03:00:37;;;;;;;4.18;2.00;;;;;;;;;;5030767;28;20202;-73
2022/10/08 03:03:13;;;;;;;8.85;2.22;;;;;;;;;;5030219;28;20758;-74
2022/10/08 03:05:40;;;;;;;7.60;1.92;;;;;;;;;;5031424;28;20664;-73
2022/10/08 03:08:06;;;;;;;8.90;2.15;;;;;;;;;;5029266;28;20496;-72
2022/10/08 03:10:33;;;;;;;8.10;2.05;;;;;;;;;;5028902;28;20236;-73
2022/10/08 03:13:00;;;;;;;9.38;2.28;;;;;;;;;;5031512;28;20225;-73
2022/10/08 03:15:25;;;;;;;5.28;2.42;;;;;;;;;;5027038;28;20183;-73
2022/10/08 03:17:50;;;;;;;5.22;1.90;;;;;;;;;;5031905;28;20686;-73
2022/10/08 03:20:16;;;;;;;4.78;2.38;;;;;;;;;;5029832;28;20186;-73
2022/10/08 03:22:41;;;;;;;7.95;2.10;;;;;;;;;;5030978;28;20205;-73
2022/10/08 03:25:07;;;;;;;3.38;2.20;;;;;;;;;;5029597;28;20201;-73
2022/10/08 03:27:34;;;;;;;5.97;2.25;;;;;;;;;;5032248;28;20178;-73
2022/10/08 03:29:59;;;;;;;7.38;2.88;;;;;;;;;;5029972;28;20201;-73
2022/10/08 03:32:24;;;;;;;4.93;2.25;;;;;;;;;;5030524;28;20695;-73
2022/10/08 03:34:50;;;;;;;5.00;2.20;;;;;;;;;;5031331;28;20266;-73
2022/10/08 03:37:15;;;;;;;2.58;1.95;;;;;;;;;;5031115;28;20280;-73
2022/10/08 03:39:42;;;;;;;6.03;2.55;;;;;;;;;;5029706;28;20656;-73
2022/10/08 03:42:07;;;;;;;7.85;2.08;;;;;;;;;;5013536;28;20174;-74
2022/10/08 03:44:32;;;;;;;9.32;2.40;;;;;;;;;;5029391;28;20713;-73
2022/10/08 03:46:57;;;;;;;6.20;2.28;;;;;;;;;;5027569;28;20179;-73
2022/10/08 03:49:22;;;;;;;5.85;3.00;;;;;;;;;;5025774;28;20182;-73
2022/10/08 03:51:47;;;;;;;8.23;2.13;;;;;;;;;;5023380;28;20179;-73
2022/10/08 03:54:13;;;;;;;5.80;2.22;;;;;;;;;;5028874;28;20202;-74
2022/10/08 03:56:38;;;;;;;8.63;2.30;;;;;;;;;;5023691;28;20552;-73
2022/10/08 03:59:03;;;;;;;3.20;2.15;;;;;;;;;;5030901;28;20182;-73
2022/10/08 04:01:28;;;;;;;5.78;1.90;;;;;;;;;;5030527;28;20186;-73
2022/10/08 04:03:54;;;;;;;6.67;2.00;;;;;;;;;;5024103;28;20695;-73
2022/10/08 04:06:19;;;;;;;8.70;2.17;;;;;;;;;;5024216;28;20629;-73
2022/10/08 04:08:44;;;;;;;6.10;2.63;;;;;;;;;;5028901;28;20714;-73
2022/10/08 04:11:11;;;;;;;4.05;2.17;;;;;;;;;;5024385;28;20174;-74
2022/10/08 04:13:36;;;;;;;6.20;2.42;;;;;;;;;;5031430;28;20198;-72
2022/10/08 04:16:06;;;;;;;6.55;2.40;;;;;;;;;;5031373;28;20304;-72
2022/10/08 04:18:31;;;;;;;7.07;2.15;;;;;;;;;;5029853;28;20194;-72
2022/10/08 04:20:57;;;;;;;6.45;2.45;;;;;;;;;;5013323;28;20166;-74
2022/10/08 04:23:22;;;;;;;8.00;2.40;;;;;;;;;;5031549;28;20214;-74
2022/10/08 04:25:49;;;;;;;4.70;2.10;;;;;;;;;;5031859;28;20162;-73
2022/10/08 04:28:14;;;;;;;6.63;2.97;;;;;;;;;;5031633;28;20245;-72
2022/10/08 04:30:39;;;;;;;6.30;2.73;;;;;;;;;;5031220;28;20281;-74
2022/10/08 04:33:04;;;;;;;3.17;2.20;;;;;;;;;;5030197;28;20205;-74
2022/10/08 04:35:29;;;;;;;7.40;3.03;;;;;;;;;;5031548;28;20174;-72
2022/10/08 04:37:55;;;;;;;10.43;3.77;;;;;;;;;;5031518;28;20715;-71
2022/10/08 04:40:20;;;;;;;10.10;2.60;;;;;;;;;;5031415;28;20178;-73
2022/10/08 04:42:49;;;;;;;4.87;2.20;;;;;;;;;;5031235;28;20202;-72
2022/10/08 04:45:14;;;;;;;5.60;2.37;;;;;;;;;;5030362;28;20198;-72
2022/10/08 04:47:41;;;;;;;8.20;2.77;;;;;;;;;;5030090;28;20652;-72
2022/10/08 04:50:07;;;;;;;4.17;2.50;;;;;;;;;;5028999;28;20174;-74
2022/10/08 04:52:32;;;;;;;3.67;2.40;;;;;;;;;;5030838;28;20609;-74
2022/10/08 04:54:57;;;;;;;7.77;2.70;;;;;;;;;;5031430;28;20174;-74
2022/10/08 04:57:22;;;;;;;5.37;2.60;;;;;;;;;;5026632;28;20189;-74
2022/10/08 04:59:47;;;;;;;8.50;3.13;;;;;;;;;;5031114;28;20582;-73
2022/10/08 05:02:13;;;;;;;6.93;3.33;;;;;;;;;;5029663;28;20228;-74
2022/10/08 05:04:38;;;;;;;12.63;3.50;;;;;;;;;;5030403;28;20177;-74
2022/10/08 05:07:03;;;;;;;8.77;2.83;;;;;;;;;;5034727;28;20557;-72
2022/10/08 05:09:28;;;;;;;5.63;2.50;;;;;;;;;;5035399;28;20217;-74
2022/10/08 05:11:53;;;;;;;6.50;3.07;;;;;;;;;;5030813;28;20181;-74
2022/10/08 05:14:18;;;;;;;4.07;2.60;;;;;;;;;;5034885;28;20565;-73
2022/10/08 05:16:44;;;;;;;5.47;3.03;;;;;;;;;;5034856;28;20178;-75
2022/10/08 05:19:09;;;;;;;5.77;2.90;;;;;;;;;;5035028;28;20192;-73
2022/10/08 05:21:34;;;;;;;4.90;2.70;;;;;;;;;;5034439;28;20174;-73
2022/10/08 05:24:01;;;;;;;8.13;3.17;;;;;;;;;;5016161;28;20210;-72
2022/10/08 05:26:27;;;;;;;8.37;2.47;;;;;;;;;;5034610;28;20220;-74
2022/10/08 05:28:54;;;;;;;11.17;3.60;;;;;;;;;;5017024;28;20698;-73
2022/10/08 05:31:20;;;;;;;8.90;2.50;;;;;;;;;;5032588;28;20183;-74
2022/10/08 05:33:45;;;;;;;5.13;2.40;;;;;;;;;;5034969;28;20256;-73
2022/10/08 05:36:21;;;;;;;9.63;2.67;;;;;;;;;;5034448;28;20549;-73
2022/10/08 05:38:47;;;;;;;5.27;2.30;;;;;;;;;;5034734;28;20185;-74
2022/10/08 05:41:16;;;;;;;17.47;4.70;;;;;;;;;;5032795;28;20174;-74
2022/10/08 05:43:42;;;;;;;12.47;4.07;;;;;;;;;;5034125;28;20206;-73
2022/10/08 05:46:07;;;;;;;11.67;5.83;;;;;;;;;;5034190;28;20221;-74
2022/10/08 05:48:32;;;;;;;9.00;5.93;;;;;;;;;;5034532;28;20712;-73
2022/10/08 05:51:05;;;;;;;10.20;5.30;;;;;;;;;;5032124;28;20217;-74
2022/10/08 05:53:30;;;;;;;6.97;3.80;;;;;;;;;;5032441;28;20210;-73
2022/10/08 05:55:59;;;;;;;10.93;3.50;;;;;;;;;;5032153;28;20244;-74
2022/10/08 05:58:24;;;;;;;7.10;3.13;;;;;;;;;;5031507;28;20189;-73
2022/10/08 06:00:56;;;;;;;9.97;2.60;;;;;;;;;;5032144;28;20570;-74
2022/10/08 06:03:22;;;;;;;6.30;3.10;;;;;;;;;;5016081;28;20210;-74
2022/10/08 06:05:47;;;;;;;4.60;2.30;;;;;;;;;;5033718;28;20215;-74
2022/10/08 06:08:12;;;;;;;7.73;2.57;;;;;;;;;;5033954;28;20208;-74
2022/10/08 06:10:37;;;;;;;5.13;2.50;;;;;;;;;;5032524;28;20178;-74
2022/10/08 06:13:02;;;;;;;4.67;2.10;;;;;;;;;;5033456;28;20206;-72
2022/10/08 06:15:27;;;;;;;7.70;2.50;;;;;;;;;;5032916;28;20178;-74
2022/10/08 06:17:53;;;;;;;6.90;2.10;;;;;;;;;;5032700;28;20261;-74
2022/10/08 06:20:18;;;;;;;8.77;2.30;;;;;;;;;;5016097;28;20200;-75
2022/10/08 06:22:43;;;;;;;6.67;1.80;;;;;;;;;;5033808;28;20565;-73
2022/10/08 06:25:08;;;;;;;11.77;2.70;;;;;;;;;;5033733;28;20550;-74
2022/10/08 06:27:33;;;;;;;6.27;1.93;;;;;;;;;;5033389;28;20175;-73
2022/10/08 06:29:59;;;;;;;5.17;1.63;;;;;;;;;;5015628;28;20224;-74
2022/10/08 06:32:24;;;;;;;6.33;1.60;;;;;;;;;;5032929;28;20201;-73
2022/10/08 06:34:49;;;;;;;5.73;2.13;;;;;;;;;;5016247;28;20185;-73
2022/10/08 06:37:14;;;;;;;4.97;1.30;;;;;;;;;;5033772;28;20162;-73
2022/10/08 06:39:39;;;;;;;2.80;1.60;;;;;;;;;;5033884;28;20167;-75
2022/10/08 06:42:04;;;;;;;8.40;1.93;;;;;;;;;;5033386;28;20175;-73
2022/10/08 06:44:30;;;;;;;7.30;3.30;;;;;;;;;;5014270;28;20202;-74
2022/10/08 06:46:55;;;;;;;7.47;1.97;;;;;;;;;;5033252;28;20171;-74
2022/10/08 06:49:25;;;;;;;6.50;1.43;;;;;;;;;;5015557;28;20234;-73
2022/10/08 06:51:50;;;;;;;4.80;1.53;;;;;;;;;;5032890;28;20166;-73
2022/10/08 06:54:15;;;;;;;6.00;1.40;;;;;;;;;;5033419;28;20193;-73
2022/10/08 06:56:40;;;;;;;4.13;1.40;;;;;;;;;;5030644;28;20817;-74
2022/10/08 06:59:06;;;;;;;3.13;1.30;;;;;;;;;;5033420;28;20171;-74
2022/10/08 07:01:33;;;;;;;4.43;1.40;;;;;;;;;;5032703;28;20660;-73
2022/10/08 07:03:59;;;;;;;3.13;1.10;;;;;;;;;;5015238;28;20268;-73
2022/10/08 07:06:24;;;;;;;6.80;1.47;;;;;;;;;;5033252;28;20202;-75
2022/10/08 07:08:50;;;;;;;4.00;1.10;;;;;;;;;;5033007;28;20687;-72
2022/10/08 07:11:16;;;;;;;5.03;1.73;;;;;;;;;;5031643;28;20170;-74
2022/10/08 07:13:42;;;;;;;6.13;1.73;;;;;;;;;;5014693;28;20195;-73
2022/10/08 07:16:12;;;;;;;4.53;1.23;;;;;;;;;;5032871;28;20166;-73
2022/10/08 07:18:38;;;;;;;4.43;1.13;;;;;;;;;;5032646;28;20645;-74
2022/10/08 07:21:04;;;;;;;7.35;1.70;;;;;;;;;;5032443;28;20667;-74
2022/10/08 07:23:29;;;;;;;8.57;1.38;;;;;;;;;;5032355;28;20206;-73
2022/10/08 07:25:59;;;;;;;2.80;1.30;;;;;;;;;;5031613;28;20175;-73
2022/10/08 07:28:25;;;;;;;4.88;2.00;;;;;;;;;;5031993;28;20181;-74
2022/10/08 07:30:50;;;;;;;4.70;1.38;;;;;;;;;;5032194;28;20606;-73
2022/10/08 07:33:15;;;;;;;6.90;2.33;;;;;;;;;;5014611;28;20285;-71
2022/10/08 07:35:40;;;;;;;5.80;1.40;;;;;;;;;;5032193;28;20178;-74
2022/10/08 07:38:06;;;;;;;4.18;1.05;;;;;;;;;;5031458;28;20268;-71
2022/10/08 07:40:33;;;;;;;3.45;1.13;;;;;;;;;;5032140;28;20180;-73
2022/10/08 07:42:58;;;;;;;4.93;1.83;;;;;;;;;;5032054;28;20201;-73
2022/10/08 07:45:23;;;;;;;6.75;1.55;;;;;;;;;;5032531;28;20170;-73
2022/10/08 07:47:49;;;;;;;7.60;0.95;;;;;;;;;;5032346;28;20170;-73
2022/10/08 07:50:14;;;;;;;4.40;1.10;;;;;;;;;;5032142;28;20258;-73
2022/10/08 07:52:39;;;;;;;3.53;1.33;;;;;;;;;;5030152;28;20200;-73
2022/10/08 07:55:05;;;;;;;4.25;1.30;;;;;;;;;;5032003;28;20531;-73
2022/10/08 07:57:30;;;;;;;7.93;1.10;;;;;;;;;;5029367;28;20689;-71
2022/10/08 07:59:55;;;;;;;3.67;1.30;;;;;;;;;;5013368;28;20652;-73
2022/10/08 08:02:20;;;;;;;5.15;1.40;;;;;;;;;;5031683;28;20190;-72
2022/10/08 08:04:45;;;;;;;3.83;1.48;;;;;;;;;;5030041;28;20202;-73
2022/10/08 08:07:11;;;;;;;5.43;1.08;;;;;;;;;;5031721;28;20170;-73
2022/10/08 08:09:36;;;;;;;3.25;1.40;;;;;;;;;;5030857;28;20178;-73
2022/10/08 08:12:02;;;;;;;3.55;1.45;;;;;;;;;;5030064;28;20221;-71
2022/10/08 08:14:27;;;;;;;2.45;0.93;;;;;;;;;;5029608;28;20243;-73
2022/10/08 08:16:52;;;;;;;5.93;1.20;;;;;;;;;;5030021;28;20663;-73
2022/10/08 08:19:17;;;;;;;2.95;1.35;;;;;;;;;;5030246;28;20178;-73
2022/10/08 08:21:42;;;;;;;7.32;1.40;;;;;;;;;;5031285;28;20185;-73
2022/10/08 08:24:11;;;;;;;5.18;1.30;;;;;;;;;;5030072;28;20238;-73
2022/10/08 08:26:37;;;;;;;4.75;1.27;;;;;;;;;;5025365;28;20706;-73
2022/10/08 08:29:07;;;;;;;3.70;1.50;;;;;;;;;;5031803;28;20162;-73
2022/10/08 08:31:36;;;;;;;6.03;1.08;;;;;;;;;;5031297;28;20262;-73
2022/10/08 08:34:04;;;;;;;6.68;1.15;;;;;;;;;;5030656;28;20202;-72
2022/10/08 08:36:31;;;;;;;8.40;2.88;;;;;;;;;;5031659;28;20177;-73
2022/10/08 08:38:56;;;;;;;10.73;2.25;;;;;;;;;;5012938;28;20178;-73
2022/10/08 08:41:22;;;;;;;2.88;1.25;;;;;;;;;;5030587;28;20177;-73
2022/10/08 08:43:47;;;;;;;3.07;1.30;;;;;;;;;;5031446;28;20205;-72
2022/10/08 08:46:16;;;;;;;3.50;0.93;;;;;;;;;;5031584;28;20414;-72
2022/10/08 08:48:42;;;;;;;5.10;1.25;;;;;;;;;;5031274;28;20254;-72
2022/10/08 08:51:08;;;;;;;3.92;1.25;;;;;;;;;;5031118;28;20170;-72
2022/10/08 08:53:33;;;;;;;2.88;0.90;;;;;;;;;;5029051;28;20208;-72
2022/10/08 08:56:01;;;;;;;2.13;0.98;;;;;;;;;;5028240;28;20509;-72
2022/10/08 08:58:39;;;;;;;3.97;1.13;;;;;;;;;;5030413;28;20182;-72
2022/10/08 09:01:19;;;;;;;6.45;1.45;;;;;;;;;;5012945;28;20674;-72
2022/10/08 09:03:44;;;;;;;4.55;1.00;;;;;;;;;;5013394;28;20202;-72
2022/10/08 09:06:13;;;;;;;2.80;0.90;;;;;;;;;;5029848;28;20231;-72
2022/10/08 09:08:57;;;;;;;4.97;0.93;;;;;;;;;;5030871;28;20404;-72
2022/10/08 09:11:23;;;;;;;2.40;0.80;;;;;;;;;;5029460;28;20182;-72
2022/10/08 09:14:07;;;;;;;4.45;0.90;;;;;;;;;;5013360;28;20279;-72
2022/10/08 09:16:32;;;;;;;5.80;1.30;;;;;;;;;;5013706;28;20540;-72
2022/10/08 09:18:58;;;;;;;6.40;1.30;;;;;;;;;;5027152;28;20179;-72
2022/10/08 09:21:23;;;;;;;3.72;0.98;;;;;;;;;;5030774;28;20551;-72
2022/10/08 09:23:48;;;;;;;4.18;1.08;;;;;;;;;;5030322;28;20212;-72
2022/10/08 09:26:17;;;;;;;2.85;0.80;;;;;;;;;;5030528;28;20244;-72
2022/10/08 09:28:47;;;;;;;4.85;0.80;;;;;;;;;;5031104;28;20286;-72
2022/10/08 09:31:28;;;;;;;4.90;0.80;;;;;;;;;;5029952;28;20193;-72
2022/10/08 09:33:53;;;;;;;4.18;0.90;;;;;;;;;;5023794;28;20198;-72
2022/10/08 09:36:29;;;;;;;5.13;0.77;;;;;;;;;;5026856;28;20178;-72
2022/10/08 09:38:58;;;;;;;4.03;0.70;;;;;;;;;;5013096;28;20476;-72
2022/10/08 09:41:27;;;;;;;3.50;1.42;;;;;;;;;;5030746;28;20186;-72
2022/10/08 09:44:11;;;;;;;6.05;1.10;;;;;;;;;;5030804;28;20260;-72
2022/10/08 09:46:36;;;;;;;4.45;1.23;;;;;;;;;;5029957;28;20268;-72
2022/10/08 09:49:21;;;;;;;3.92;1.05;;;;;;;;;;5030725;28;20895;-72
2022/10/08 09:51:49;;;;;;;3.22;0.90;;;;;;;;;;5018863;28;20228;-72
2022/10/08 09:54:16;;;;;;;5.25;1.05;;;;;;;;;;5034111;28;20202;-72
2022/10/08 09:56:48;;;;;;;3.38;1.27;;;;;;;;;;5031855;28;20664;-73
2022/10/08 09:59:17;;;;;;;4.22;1.05;;;;;;;;;;5033965;28;20179;-72
2022/10/08 10:01:45;;;;;;;7.72;1.33;;;;;;;;;;5033955;28;20198;-73
2022/10/08 10:04:16;;;;;;;7.28;1.33;;;;;;;;;;5028857;28;20479;-72
2022/10/08 10:06:44;;;;;;;6.85;1.05;;;;;;;;;;5034195;28;20166;-72
2022/10/08 10:09:10;;;;;;;3.92;0.73;;;;;;;;;;5014269;28;20720;-73
2022/10/08 10:11:38;;;;;;;6.43;1.05;;;;;;;;;;5024045;28;20257;-72
2022/10/08 10:14:06;;;;;;;3.88;1.30;;;;;;;;;;5033701;28;20213;-72
2022/10/08 10:16:35;;;;;;;8.35;1.67;;;;;;;;;;5034048;28;20223;-72
2022/10/08 10:19:06;;;;;;;3.60;1.00;;;;;;;;;;5032814;28;20652;-72
2022/10/08 10:21:35;;;;;;;2.22;1.00;;;;;;;;;;5016124;28;20281;-72
2022/10/08 10:24:04;;;;;;;3.10;0.85;;;;;;;;;;5033377;28;20330;-73
2022/10/08 10:26:32;;;;;;;3.20;0.60;;;;;;;;;;5033109;28;20644;-72
2022/10/08 10:29:04;;;;;;;2.85;0.63;;;;;;;;;;5033683;28;20178;-72
2022/10/08 10:31:44;;;;;;;5.25;0.82;;;;;;;;;;5032385;28;20595;-73
2022/10/08 10:34:09;;;;;;;3.80;2.05;;;;;;;;;;5030967;28;20209;-72
2022/10/08 10:36:37;;;;;;;8.13;2.13;;;;;;;;;;5033675;28;20178;-72
2022/10/08 10:39:12;;;;;;;2.28;0.50;;;;;;;;;;5015530;28;20408;-72
2022/10/08 10:41:57;;;;;;;6.82;0.93;;;;;;;;;;5030756;28;20200;-72
2022/10/08 10:44:26;;;;;;;5.15;0.90;;;;;;;;;;5033140;28;20570;-72
2022/10/08 10:46:54;;;;;;;4.50;0.95;;;;;;;;;;5031070;28;20684;-72
2022/10/08 10:49:19;;;;;;;2.35;0.95;;;;;;;;;;5029911;28;20186;-72
2022/10/08 10:51:59;;;;;;;3.63;0.80;;;;;;;;;;5032926;28;20173;-72
2022/10/08 10:54:31;;;;;;;1.77;0.63;;;;;;;;;;5033097;28;20197;-72
2022/10/08 10:57:04;;;;;;;5.78;0.90;;;;;;;;;;5028192;28;20583;-72
2022/10/08 10:59:49;;;;;;;2.63;0.82;;;;;;;;;;5019138;28;20174;-73
2022/10/08 11:02:33;;;;;;;3.35;1.05;;;;;;;;;;5026690;28;20182;-73
2022/10/08 11:05:16;;;;;;;2.72;0.90;;;;;;;;;;5026613;28;20167;-72
2022/10/08 11:07:42;;;;;;;5.55;0.90;;;;;;;;;;5028247;28;20265;-72
2022/10/08 11:10:13;;;;;;;5.15;1.00;;;;;;;;;;5028672;28;20297;-72
2022/10/08 11:12:49;;;;;;;3.90;1.00;;;;;;;;;;5008696;28;20281;-72
2022/10/08 11:15:33;;;;;;;2.88;0.98;;;;;;;;;;5025301;28;20174;-72
2022/10/08 11:18:07;;;;;;;3.70;1.00;;;;;;;;;;5025490;28;20178;-72
2022/10/08 11:20:38;;;;;;;5.68;1.52;;;;;;;;;;5014718;28;20170;-72
2022/10/08 11:23:13;;;;;;;4.75;0.77;;;;;;;;;;5032383;28;20202;-71
2022/10/08 11:25:46;;;;;;;2.92;0.60;;;;;;;;;;5032671;28;20170;-72
2022/10/08 11:28:26;;;;;;;2.70;0.77;;;;;;;;;;5032422;28;20182;-72
2022/10/08 11:30:51;;;;;;;3.80;1.10;;;;;;;;;;5032116;28;20170;-72
2022/10/08 11:33:17;;;;;;;5.37;1.07;;;;;;;;;;5031625;28;20209;-72
2022/10/08 11:35:52;;;;;;;5.88;1.95;;;;;;;;;;5023962;28;20730;-72
2022/10/08 11:38:28;;;;;;;5.28;0.70;;;;;;;;;;5032066;28;20178;-72
2022/10/08 11:41:11;;;;;;;6.53;0.98;;;;;;;;;;5025191;28;20273;-72
2022/10/08 11:43:57;;;;;;;1.55;0.70;;;;;;;;;;5032381;28;20202;-72
2022/10/08 11:46:27;;;;;;;4.85;0.60;;;;;;;;;;5032011;28;20170;-72
2022/10/08 11:48:52;;;;;;;5.32;0.77;;;;;;;;;;5032215;28;20593;-72
2022/10/08 11:51:17;;;;;;;3.20;0.90;;;;;;;;;;5013139;28;20253;-71
2022/10/08 11:53:56;;;;;;;4.00;0.80;;;;;;;;;;5032308;28;20202;-72
2022/10/08 11:56:21;;;;;;;4.93;1.60;;;;;;;;;;5032062;28;20400;-72
2022/10/08 11:58:51;;;;;;;6.28;1.25;;;;;;;;;;5032147;28;20170;-72
2022/10/08 12:01:16;;;;;;;3.10;0.60;;;;;;;;;;5031255;28;20601;-72
2022/10/08 12:03:42;;;;;;;4.28;1.00;;;;;;;;;;5031901;28;20202;-73
2022/10/08 12:06:16;;;;;;;4.22;1.10;;;;;;;;;;5013320;28;20181;-72
2022/10/08 12:08:48;;;;;;;3.65;0.70;;;;;;;;;;5031777;28;20201;-72
2022/10/08 12:11:34;;;;;;;2.60;1.23;;;;;;;;;;5031388;28;20163;-72
2022/10/08 12:14:15;;;;;;;7.40;2.33;;;;;;;;;;5031889;28;20652;-73
2022/10/08 12:16:46;;;;;;;7.30;2.70;;;;;;;;;;5030972;28;20209;-72
2022/10/08 12:19:30;;;;;;;7.13;1.30;;;;;;;;;;5013080;28;20231;-72
2022/10/08 12:21:56;;;;;;;3.95;1.13;;;;;;;;;;5011348;28;20250;-72
2022/10/08 12:24:36;;;;;;;3.70;0.75;;;;;;;;;;5011742;28;20649;-72
2022/10/08 12:27:17;;;;;;;4.10;1.00;;;;;;;;;;5011722;28;20171;-72
2022/10/08 12:29:58;;;;;;;4.95;1.35;;;;;;;;;;5011971;28;20171;-72
2022/10/08 12:32:28;;;;;;;1.90;0.80;;;;;;;;;;5022735;28;20236;-72
2022/10/08 12:34:53;;;;;;;2.17;0.50;;;;;;;;;;5012836;28;20170;-72
2022/10/08 12:37:22;;;;;;;3.20;1.27;;;;;;;;;;5031467;28;20221;-72
2022/10/08 12:39:48;;;;;;;3.15;1.63;;;;;;;;;;5014086;28;20241;-72
2022/10/08 12:42:19;;;;;;;2.70;1.02;;;;;;;;;;5030989;28;20202;-72
2022/10/08 12:44:50;;;;;;;3.50;0.77;;;;;;;;;;5027131;28;20213;-72
2022/10/08 12:47:32;;;;;;;3.17;0.70;;;;;;;;;;5031194;28;20771;-72
2022/10/08 12:50:01;;;;;;;3.25;0.45;;;;;;;;;;5031509;28;20170;-72
2022/10/08 12:52:31;;;;;;;3.38;1.05;;;;;;;;;;5030936;28;20194;-72
2022/10/08 12:54:58;;;;;;;3.47;0.70;;;;;;;;;;5031354;28;20177;-72
2022/10/08 12:57:29;;;;;;;3.53;0.68;;;;;;;;;;5028801;28;20265;-72
2022/10/08 12:59:54;;;;;;;2.25;1.40;;;;;;;;;;5024681;28;20175;-72
2022/10/08 13:02:27;;;;;;;4.28;0.60;;;;;;;;;;5030759;28;20196;-72
2022/10/08 13:04:52;;;;;;;2.70;0.63;;;;;;;;;;5031360;28;20220;-72
2022/10/08 13:07:23;;;;;;;5.47;2.57;;;;;;;;;;5031236;28;20162;-72
2022/10/08 13:09:52;;;;;;;3.55;1.85;;;;;;;;;;5030710;28;20671;-72
2022/10/08 13:12:17;;;;;;;2.88;1.25;;;;;;;;;;5012993;28;20193;-72
2022/10/08 13:14:42;;;;;;;3.77;0.63;;;;;;;;;;5031267;28;20171;-72
2022/10/08 13:17:25;;;;;;;1.77;0.65;;;;;;;;;;5031292;28;20968;-72
2022/10/08 13:20:01;;;;;;;7.97;4.07;;;;;;;;;;5031123;28;20225;-72
2022/10/08 13:22:26;;;;;;;7.47;4.78;;;;;;;;;;5013128;28;20193;-72
2022/10/08 13:24:51;;;;;;;3.77;2.43;;;;;;;;;;5030181;28;20213;-72
2022/10/08 13:27:35;;;;;;;2.38;0.80;;;;;;;;;;5032990;28;20830;-72
2022/10/08 13:30:20;;;;;;;1.70;0.40;;;;;;;;;;5034873;28;20166;-71
2022/10/08 13:32:45;;;;;;;2.28;0.80;;;;;;;;;;5034126;28;20573;-72
2022/10/08 13:35:21;;;;;;;3.17;1.77;;;;;;;;;;5034707;28;20167;-73
2022/10/08 13:37:50;;;;;;;3.90;0.98;;;;;;;;;;5033474;28;20656;-72
2022/10/08 13:40:17;;;;;;;5.80;0.80;;;;;;;;;;5034365;28;20179;-72
2022/10/08 13:42:44;;;;;;;6.97;2.13;;;;;;;;;;5014239;28;20202;-72
2022/10/08 13:45:17;;;;;;;6.82;1.40;;;;;;;;;;5016672;28;20179;-72
2022/10/08 13:47:42;;;;;;;4.40;1.00;;;;;;;;;;5014686;28;20175;-72
2022/10/08 13:50:07;;;;;;;3.58;1.60;;;;;;;;;;5014653;28;20600;-72
2022/10/08 13:52:33;;;;;;;5.75;1.92;;;;;;;;;;5026947;28;20239;-72
2022/10/08 13:55:14;;;;;;;5.93;1.20;;;;;;;;;;5034333;28;20170;-72
2022/10/08 13:57:39;;;;;;;4.22;1.75;;;;;;;;;;5031670;28;20258;-72
2022/10/08 14:00:05;;;;;;;3.33;1.55;;;;;;;;;;5034395;28;20246;-72
2022/10/08 14:02:30;;;;;;;4.43;1.35;;;;;;;;;;5015750;28;20686;-72
2022/10/08 14:04:55;;;;;;;3.67;0.98;;;;;;;;;;5030226;28;20174;-72
2022/10/08 14:07:22;;;;;;;3.78;1.00;;;;;;;;;;5029890;28;20178;-72
2022/10/08 14:09:47;;;;;;;2.63;0.90;;;;;;;;;;5034090;28;20162;-72
2022/10/08 14:12:13;;;;;;;3.80;1.20;;;;;;;;;;5033599;28;20166;-72
2022/10/08 14:14:38;;;;;;;3.40;1.27;;;;;;;;;;5034035;28;20220;-72
2022/10/08 14:17:03;;;;;;;3.83;1.43;;;;;;;;;;5034351;28;20541;-72
2022/10/08 14:19:28;;;;;;;2.75;0.77;;;;;;;;;;5033037;28;20466;-71
2022/10/08 14:21:55;;;;;;;3.80;1.43;;;;;;;;;;5033757;28;20178;-72
2022/10/08 14:24:20;;;;;;;3.65;0.90;;;;;;;;;;5033795;28;20463;-72
2022/10/08 14:26:45;;;;;;;5.72;0.95;;;;;;;;;;5033915;28;20182;-72
2022/10/08 14:29:10;;;;;;;2.77;0.87;;;;;;;;;;5033836;28;20402;-72
2022/10/08 14:31:35;;;;;;;3.83;0.90;;;;;;;;;;5033163;28;20938;-72
2022/10/08 14:34:01;;;;;;;5.57;1.20;;;;;;;;;;5033209;28;20467;-72
2022/10/08 14:36:30;;;;;;;3.15;1.00;;;;;;;;;;5015802;28;20178;-72
2022/10/08 14:38:55;;;;;;;3.13;0.73;;;;;;;;;;5032473;28;20177;-72
2022/10/08 14:41:20;;;;;;;4.85;0.93;;;;;;;;;;5033311;28;20439;-72
2022/10/08 14:43:45;;;;;;;2.78;0.75;;;;;;;;;;5034144;28;20584;-72
2022/10/08 14:46:11;;;;;;;5.88;1.73;;;;;;;;;;5032225;28;20182;-72
2022/10/08 14:48:38;;;;;;;4.40;1.27;;;;;;;;;;5033033;28;20216;-72
2022/10/08 14:51:03;;;;;;;4.78;0.90;;;;;;;;;;5032946;28;20253;-72